Time;durP1;ratioP1;P1;durP2;ratioP2;P2;SDS_P1;SDS_P2;PMS_P1;PMS_P2;Temp;Humidity;BMP_temperature;BMP_pressure;BME280_temperature;BME280_humidity;BME280_pressure;Samples;Min_cycle;Max_cycle;Signal;HPM_P1;HPM_P2
2021/11/16 00:01:40;;;;;;;4.20;3.03;;;;;;;26.00;33.01;97008.72;5004589;28;20032;-33
2021/11/16 00:04:06;;;;;;;4.82;3.00;;;;;;;25.99;32.86;97005.22;5007652;28;20056;-38
2021/11/16 00:06:32;;;;;;;4.75;3.22;;;;;;;26.00;32.92;97014.81;5006966;28;20514;-35
2021/11/16 00:08:57;;;;;;;4.22;3.30;;;;;;;25.99;32.86;97010.47;5008399;28;20017;-37
2021/11/16 00:11:23;;;;;;;3.28;2.85;;;;;;;25.99;32.89;97013.09;5009486;28;20600;-37
2021/11/16 00:13:49;;;;;;;5.45;3.10;;;;;;;25.99;32.81;97007.84;5015661;28;20176;-34
2021/11/16 00:16:15;;;;;;;4.38;3.20;;;;;;;26.00;32.95;97013.97;5025743;28;20029;-35
2021/11/16 00:18:40;;;;;;;5.50;3.25;;;;;;;25.99;32.80;97010.47;5027756;28;20032;-33
2021/11/16 00:21:08;;;;;;;3.75;2.70;;;;;;;26.00;32.90;97013.97;5027405;28;20054;-33
2021/11/16 00:23:35;;;;;;;3.58;3.00;;;;;;;26.00;32.90;97014.81;5024650;28;20070;-33
2021/11/16 00:26:01;;;;;;;4.18;3.22;;;;;;;26.01;32.98;97021.75;5022436;28;20025;-36
2021/11/16 00:28:27;;;;;;;4.18;2.67;;;;;;;26.00;32.85;97019.22;5029999;28;20033;-36
2021/11/16 00:30:55;;;;;;;5.53;2.80;;;;;;;25.99;32.99;97018.34;5021643;28;20044;-37
2021/11/16 00:33:21;;;;;;;3.50;2.78;;;;;;;26.00;32.80;97020.06;5023826;28;20037;-36
2021/11/16 00:35:48;;;;;;;4.75;2.90;;;;;;;25.99;33.01;97018.34;5032818;28;20078;-34
2021/11/16 00:38:14;;;;;;;5.05;3.35;;;;;;;25.99;32.95;97023.63;5040971;28;20033;-38
2021/11/16 00:40:40;;;;;;;3.03;2.50;;;;;;;26.00;32.96;97021.84;5040652;28;20030;-36
2021/11/16 00:43:08;;;;;;;3.83;3.08;;;;;;;25.99;32.80;97020.97;5026499;28;20035;-38
2021/11/16 00:45:36;;;;;;;4.35;3.03;;;;;;;25.98;32.85;97027.19;5029921;28;20569;-37
2021/11/16 00:48:02;;;;;;;3.30;2.90;;;;;;;25.98;32.90;97021.91;5028038;28;20029;-34
2021/11/16 00:50:28;;;;;;;7.07;3.08;;;;;;;25.98;32.80;97029.78;5028938;28;20040;-36
2021/11/16 00:52:53;;;;;;;2.85;2.60;;;;;;;25.98;32.99;97027.19;5027612;28;20381;-37
2021/11/16 00:55:19;;;;;;;3.22;2.72;;;;;;;25.97;32.89;97025.44;5028769;28;20026;-35
2021/11/16 00:57:44;;;;;;;3.40;2.92;;;;;;;25.99;32.81;97039.38;5026866;28;20029;-33
2021/11/16 01:00:11;;;;;;;3.10;2.80;;;;;;;25.98;32.90;97032.41;5024957;28;20188;-37
2021/11/16 01:02:36;;;;;;;4.55;2.78;;;;;;;25.98;32.88;97034.19;5023269;28;20440;-36
2021/11/16 01:05:02;;;;;;;3.53;2.90;;;;;;;25.97;32.98;97035.94;5025829;28;20051;-35
2021/11/16 01:07:28;;;;;;;3.55;2.88;;;;;;;25.98;32.91;97036.81;5025645;28;20039;-34
2021/11/16 01:09:53;;;;;;;2.90;2.58;;;;;;;25.98;32.98;97026.31;5041661;28;20393;-35
2021/11/16 01:12:21;;;;;;;4.00;2.78;;;;;;;25.97;32.93;97033.31;5029638;28;20041;-35
2021/11/16 01:14:46;;;;;;;3.00;2.50;;;;;;;25.98;32.92;97036.81;5031258;28;20072;-34
2021/11/16 01:17:11;;;;;;;3.13;2.42;;;;;;;25.97;32.90;97035.94;5026595;28;20069;-32
2021/11/16 01:19:37;;;;;;;3.85;3.03;;;;;;;25.96;32.82;97027.25;5024664;28;20025;-38
2021/11/16 01:22:03;;;;;;;2.72;2.40;;;;;;;25.96;32.99;97029.88;5027861;28;20070;-36
2021/11/16 01:24:28;;;;;;;4.20;2.78;;;;;;;25.96;32.81;97031.63;5031447;28;20029;-35
2021/11/16 01:26:54;;;;;;;2.80;2.47;;;;;;;25.97;32.93;97041.19;5026716;28;20443;-37
2021/11/16 01:29:20;;;;;;;3.55;2.50;;;;;;;25.96;32.84;97034.25;5027794;28;20412;-35
2021/11/16 01:31:46;;;;;;;4.60;2.72;;;;;;;25.95;32.95;97033.44;5033721;28;20027;-39
2021/11/16 01:34:12;;;;;;;4.60;2.53;;;;;;;25.96;32.80;97029.00;5044085;28;20021;-38
2021/11/16 01:36:37;;;;;;;2.42;2.20;;;;;;;25.96;32.80;97024.63;5031134;28;20038;-35
2021/11/16 01:39:03;;;;;;;2.53;2.25;;;;;;;25.96;32.76;97034.25;5028123;28;20394;-38
2021/11/16 01:41:30;;;;;;;3.92;2.60;;;;;;;25.96;32.93;97026.38;5029326;28;20120;-35
2021/11/16 01:43:56;;;;;;;2.80;2.50;;;;;;;25.95;32.83;97022.94;5029482;28;20024;-34
2021/11/16 01:46:22;;;;;;;3.05;2.47;;;;;;;25.97;32.91;97025.44;5029867;28;20056;-36
2021/11/16 01:48:50;;;;;;;2.63;2.42;;;;;;;25.97;32.75;97030.69;5028868;28;20036;-38
2021/11/16 01:51:20;;;;;;;3.30;2.47;;;;;;;25.96;32.81;97023.75;5031556;28;20041;-36
2021/11/16 01:53:50;;;;;;;4.22;2.40;;;;;;;25.95;32.84;97022.94;5044971;28;20025;-33
2021/11/16 01:56:16;;;;;;;2.90;2.60;;;;;;;25.96;32.91;97023.75;5030078;28;20574;-37
2021/11/16 01:58:41;;;;;;;2.42;2.20;;;;;;;25.96;32.92;97023.75;5030543;28;20033;-37
2021/11/16 02:01:07;;;;;;;3.30;2.30;;;;;;;25.96;33.02;97029.00;5026958;28;20033;-37
2021/11/16 02:03:32;;;;;;;2.50;2.20;;;;;;;25.95;32.93;97020.31;5026794;28;20021;-36
2021/11/16 02:06:14;;;;;;;16.25;5.13;;;;;;;25.94;32.62;97018.56;5029115;28;20055;-39
2021/11/16 02:08:39;;;;;;;4.07;3.22;;;;;;;25.93;32.74;97022.13;5031976;28;20042;-34
2021/11/16 02:11:05;;;;;;;5.53;2.78;;;;;;;25.94;32.84;97020.38;5029945;28;20029;-38
2021/11/16 02:13:30;;;;;;;3.50;2.63;;;;;;;25.93;32.97;97021.31;5032390;28;20037;-35
2021/11/16 02:15:56;;;;;;;3.65;2.83;;;;;;;25.93;32.69;97019.50;5028869;28;20033;-37
2021/11/16 02:18:21;;;;;;;3.17;2.38;;;;;;;25.93;32.81;97013.44;5029124;28;20033;-33
2021/11/16 02:20:47;;;;;;;2.80;2.42;;;;;;;25.93;32.80;97013.44;5029333;28;20035;-36
2021/11/16 02:23:13;;;;;;;3.72;2.65;;;;;;;25.93;32.90;97014.25;5027273;28;20294;-36
2021/11/16 02:25:38;;;;;;;3.15;2.50;;;;;;;25.93;32.83;97009.00;5032255;28;20116;-37
2021/11/16 02:28:04;;;;;;;3.17;2.50;;;;;;;25.93;32.84;97005.56;5023981;28;20025;-36
2021/11/16 02:30:29;;;;;;;3.33;2.75;;;;;;;25.93;32.91;97002.94;5028625;28;20032;-36
2021/11/16 02:32:55;;;;;;;3.22;2.50;;;;;;;25.93;32.82;97000.31;5026409;28;20100;-36
2021/11/16 02:35:21;;;;;;;3.03;2.15;;;;;;;25.93;32.95;97002.94;5031028;28;20452;-33
2021/11/16 02:37:47;;;;;;;3.00;2.30;;;;;;;25.92;32.95;97001.22;5024197;28;20036;-33
2021/11/16 02:40:13;;;;;;;3.90;2.28;;;;;;;25.92;32.90;96999.44;5032408;28;20027;-31
2021/11/16 02:42:39;;;;;;;3.83;2.40;;;;;;;25.93;32.90;97002.94;5029210;28;20029;-35
2021/11/16 02:45:05;;;;;;;3.10;2.40;;;;;;;25.93;32.93;96997.69;5041569;28;20397;-36
2021/11/16 02:47:30;;;;;;;3.75;2.42;;;;;;;25.92;32.88;96998.56;5022538;28;20032;-37
2021/11/16 02:49:56;;;;;;;2.97;2.40;;;;;;;25.92;33.01;97002.06;5028163;28;20044;-35
2021/11/16 02:52:21;;;;;;;2.40;2.20;;;;;;;25.92;32.79;96990.69;5031241;28;20486;-38
2021/11/16 02:54:47;;;;;;;4.35;2.35;;;;;;;25.92;32.89;96990.69;5027961;28;20033;-37
2021/11/16 02:57:12;;;;;;;3.17;2.33;;;;;;;25.92;32.85;96988.94;5026384;28;20082;-33
2021/11/16 02:59:38;;;;;;;4.55;2.58;;;;;;;25.92;32.96;96991.56;5029191;28;20128;-33
2021/11/16 03:02:04;;;;;;;4.32;2.40;;;;;;;25.93;32.79;96987.19;5031139;28;20052;-34
2021/11/16 03:04:33;;;;;;;2.55;2.25;;;;;;;25.92;33.00;96985.44;5028311;28;20056;-36
2021/11/16 03:07:03;;;;;;;2.72;2.38;;;;;;;25.93;32.97;96976.66;5025761;28;20493;-32
2021/11/16 03:09:30;;;;;;;2.85;2.33;;;;;;;25.93;32.94;96992.44;5023049;28;20041;-32
2021/11/16 03:11:56;;;;;;;2.63;1.90;;;;;;;25.92;32.98;96985.44;5030733;28;20029;-34
2021/11/16 03:14:23;;;;;;;3.55;2.40;;;;;;;25.92;32.84;96990.69;5028497;28;20020;-34
2021/11/16 03:16:48;;;;;;;2.70;2.33;;;;;;;25.92;32.94;96990.69;5028225;28;20417;-36
2021/11/16 03:19:14;;;;;;;2.65;2.13;;;;;;;25.92;32.97;96990.69;5026115;28;20013;-38
2021/11/16 03:21:42;;;;;;;2.42;2.22;;;;;;;25.91;33.03;96989.00;5026430;28;20048;-37
2021/11/16 03:24:07;;;;;;;2.95;2.10;;;;;;;25.91;32.99;96983.75;5026481;28;20021;-35
2021/11/16 03:26:33;;;;;;;2.70;2.20;;;;;;;25.92;33.01;96982.81;5021960;28;20033;-36
2021/11/16 03:29:00;;;;;;;3.90;2.03;;;;;;;25.91;32.97;96983.75;5023844;28;20075;-34
2021/11/16 03:33:51;;;;;;;2.17;1.90;;;;;;;25.92;32.92;96980.19;5025322;28;20028;-39
2021/11/16 03:36:17;;;;;;;2.65;2.38;;;;;;;25.92;32.96;96973.19;5034761;28;20025;-33
2021/11/16 03:38:43;;;;;;;3.25;2.40;;;;;;;25.91;32.82;96978.50;5028153;28;20064;-39
2021/11/16 03:41:09;;;;;;;2.85;2.25;;;;;;;25.91;32.94;96978.50;5026934;28;20501;-37
2021/11/16 03:43:34;;;;;;;2.55;2.33;;;;;;;25.90;32.91;96967.16;5028857;28;20080;-36
2021/11/16 03:46:00;;;;;;;2.50;2.10;;;;;;;25.91;32.82;96970.63;5043145;28;20045;-33
2021/11/16 03:48:26;;;;;;;3.42;2.40;;;;;;;25.92;32.90;96974.94;5029156;28;20289;-35
2021/11/16 03:50:51;;;;;;;3.13;2.40;;;;;;;25.91;32.92;96965.38;5029233;28;20033;-36
2021/11/16 03:53:17;;;;;;;2.95;2.40;;;;;;;25.91;32.85;96965.38;5029159;28;20036;-34
2021/11/16 03:55:43;;;;;;;2.45;2.10;;;;;;;25.91;32.99;96965.38;5026562;28;20040;-34
2021/11/16 03:58:10;;;;;;;2.80;2.30;;;;;;;25.90;32.94;96966.31;5029660;28;20040;-31
2021/11/16 04:00:38;;;;;;;3.47;2.33;;;;;;;25.91;32.95;96974.13;5025746;28;20083;-34
2021/11/16 04:03:04;;;;;;;3.60;2.38;;;;;;;25.89;32.99;96975.97;5024471;28;20056;-36
2021/11/16 04:05:30;;;;;;;2.40;2.10;;;;;;;25.87;32.86;96972.56;5034279;28;20424;-37
2021/11/16 04:07:56;;;;;;;2.72;1.92;;;;;;;25.89;32.94;96973.34;5028892;28;20035;-33
2021/11/16 04:10:23;;;;;;;2.58;2.10;;;;;;;25.90;33.02;96966.31;5027487;28;20021;-37
2021/11/16 04:12:48;;;;;;;2.33;2.13;;;;;;;25.89;32.83;96964.63;5026429;28;20032;-38
2021/11/16 04:15:14;;;;;;;2.63;2.17;;;;;;;25.89;32.98;96969.88;5025901;28;20032;-37
2021/11/16 04:17:41;;;;;;;2.75;2.20;;;;;;;25.90;32.86;96966.31;5028596;28;20033;-35
2021/11/16 04:20:27;;;;;;;2.80;2.30;;;;;;;25.89;32.99;96959.38;5025775;28;20838;-31
2021/11/16 04:22:53;;;;;;;2.45;2.20;;;;;;;25.89;32.93;96964.63;5043007;28;20037;-34
2021/11/16 04:25:19;;;;;;;2.20;2.00;;;;;;;25.89;33.03;96969.88;5023367;28;20013;-34
2021/11/16 04:27:44;;;;;;;3.03;2.20;;;;;;;25.89;32.92;96964.63;5042679;28;20029;-35
2021/11/16 04:30:11;;;;;;;2.60;1.92;;;;;;;25.89;32.95;96972.50;5027330;28;20045;-36
2021/11/16 04:32:37;;;;;;;2.35;2.13;;;;;;;25.89;33.05;96969.88;5029680;28;20578;-33
2021/11/16 04:35:03;;;;;;;2.72;2.20;;;;;;;25.89;32.91;96957.56;5027179;28;20028;-36
2021/11/16 04:37:28;;;;;;;2.47;1.98;;;;;;;25.88;33.07;96957.66;5026083;28;20381;-35
2021/11/16 04:39:54;;;;;;;2.90;2.50;;;;;;;25.88;32.89;96960.28;5028224;28;20028;-38
2021/11/16 04:42:20;;;;;;;2.78;2.10;;;;;;;25.88;32.88;96957.66;5026265;28;20021;-35
2021/11/16 04:44:46;;;;;;;2.78;2.10;;;;;;;25.87;32.90;96956.81;5024060;28;20195;-37
2021/11/16 04:47:15;;;;;;;2.60;2.30;;;;;;;25.88;33.06;96955.88;5024411;28;20027;-36
2021/11/16 04:49:44;;;;;;;2.55;2.00;;;;;;;25.87;32.82;96951.56;5030912;28;20037;-35
2021/11/16 04:52:35;;;;;;;2.33;2.13;;;;;;;25.87;32.87;96950.72;5027991;28;20025;-40
2021/11/16 04:55:44;;;;;;;2.25;2.00;;;;;;;25.87;32.90;96967.31;5024892;28;20441;-39
2021/11/16 05:03:20;;;;;;;2.40;2.00;;;;;;;25.86;32.92;96970.03;5028505;28;20080;-37
2021/11/16 05:05:45;;;;;;;3.85;2.08;;;;;;;25.85;32.99;96957.81;5023909;28;20041;-38
2021/11/16 05:08:12;;;;;;;2.75;2.15;;;;;;;25.86;32.89;96970.03;5026129;28;20032;-34
2021/11/16 05:10:37;;;;;;;2.40;2.20;;;;;;;25.85;32.96;96971.78;5026089;28;20034;-35
2021/11/16 05:13:03;;;;;;;2.55;2.17;;;;;;;25.85;32.93;96981.47;5025087;28;20017;-33
2021/11/16 05:15:28;;;;;;;2.00;1.80;;;;;;;25.85;32.99;96979.66;5026824;28;20107;-37
2021/11/16 05:17:54;;;;;;;3.42;2.10;;;;;;;25.86;33.16;96983.16;5025109;28;20048;-31
2021/11/16 05:20:19;;;;;;;2.50;2.22;;;;;;;25.86;33.05;96983.16;5026326;28;20021;-35
2021/11/16 05:22:47;;;;;;;2.13;1.90;;;;;;;25.86;33.02;96991.03;5026384;28;20025;-37
2021/11/16 05:25:12;;;;;;;2.30;2.10;;;;;;;25.86;32.99;96985.78;5031334;28;20151;-32
2021/11/16 05:27:38;;;;;;;1.83;1.73;;;;;;;25.86;32.89;96985.78;5042629;28;20618;-34
2021/11/16 05:30:06;;;;;;;2.58;2.28;;;;;;;25.86;32.96;96975.28;5027220;28;20564;-33
2021/11/16 05:32:32;;;;;;;5.63;2.30;;;;;;;25.83;32.95;96977.09;5024562;28;20498;-37
2021/11/16 05:34:57;;;;;;;2.78;2.33;;;;;;;25.83;32.96;96979.72;5027498;28;20034;-37
2021/11/16 05:37:23;;;;;;;5.68;4.00;;;;;;;25.85;32.87;96981.47;5027387;28;20033;-33
2021/11/16 05:39:48;;;;;;;5.45;3.33;;;;;;;25.81;32.91;96984.22;5028092;28;20036;-36
2021/11/16 05:42:14;;;;;;;7.18;3.20;;;;;;;25.82;32.76;96993.78;5025608;28;20041;-36
2021/11/16 05:44:39;;;;;;;4.28;2.50;;;;;;;25.81;32.89;96984.22;5024837;28;20033;-37
2021/11/16 05:47:05;;;;;;;2.45;2.00;;;;;;;25.81;32.83;96991.25;5025482;28;20588;-38
2021/11/16 05:49:33;;;;;;;3.17;2.28;;;;;;;25.81;32.97;96994.72;5025472;28;20035;-34
2021/11/16 05:52:00;;;;;;;2.95;2.38;;;;;;;25.81;32.98;96991.25;5028304;28;20037;-36
2021/11/16 05:54:29;;;;;;;2.95;2.25;;;;;;;25.82;33.04;96993.78;5029173;28;20044;-32
2021/11/16 05:56:55;;;;;;;2.25;2.05;;;;;;;25.80;32.87;96998.28;5028390;28;20112;-37
2021/11/16 05:59:20;;;;;;;2.53;2.30;;;;;;;25.80;33.02;96998.28;5030172;28;20114;-35
2021/11/16 06:01:46;;;;;;;2.28;2.08;;;;;;;25.80;32.68;96993.03;5028980;28;20033;-34
2021/11/16 06:04:11;;;;;;;3.10;2.28;;;;;;;25.81;33.09;96999.13;5023592;28;20029;-33
2021/11/16 06:06:40;;;;;;;2.22;2.03;;;;;;;25.81;33.08;96999.13;5029824;28;20040;-32
2021/11/16 06:09:06;;;;;;;5.43;1.92;;;;;;;25.80;32.94;96998.28;5030857;28;20060;-32
2021/11/16 06:11:32;;;;;;;2.35;1.90;;;;;;;25.80;32.96;97005.28;5028278;28;20033;-33
2021/11/16 06:13:58;;;;;;;2.10;1.58;;;;;;;25.77;32.84;96987.94;5023186;28;20039;-39
2021/11/16 06:16:24;;;;;;;3.38;2.10;;;;;;;25.79;33.06;96996.59;5034975;28;20699;-34
2021/11/16 06:18:51;;;;;;;2.22;2.03;;;;;;;25.81;33.11;96999.97;5026365;28;20029;-36
2021/11/16 06:21:17;;;;;;;2.45;2.05;;;;;;;25.81;33.04;96994.72;5026419;28;20029;-35
2021/11/16 06:23:42;;;;;;;2.03;1.83;;;;;;;25.81;33.06;96993.88;5027706;28;20040;-37
2021/11/16 06:26:08;;;;;;;2.13;1.88;;;;;;;25.81;32.99;96993.88;5029189;28;20404;-38
2021/11/16 06:28:33;;;;;;;2.97;1.77;;;;;;;25.80;32.89;96993.03;5028802;28;20034;-37
2021/11/16 06:30:59;;;;;;;2.22;1.90;;;;;;;25.80;32.95;97006.16;5028706;28;20033;-35
2021/11/16 06:33:25;;;;;;;3.00;2.00;;;;;;;25.81;33.02;97009.63;5026707;28;20033;-33
2021/11/16 06:35:51;;;;;;;2.78;1.80;;;;;;;25.80;33.03;97014.03;5031383;28;20516;-33
2021/11/16 06:38:16;;;;;;;4.25;1.85;;;;;;;25.81;33.08;97010.47;5027942;28;20083;-36
2021/11/16 06:40:47;;;;;;;2.40;2.20;;;;;;;25.79;33.00;97009.72;5028299;28;20028;-35
2021/11/16 06:43:23;;;;;;;4.60;1.80;;;;;;;25.81;33.01;97007.00;5042516;28;20025;-37
2021/11/16 06:45:50;;;;;;;2.70;2.15;;;;;;;25.81;33.06;97005.22;5022455;28;20017;-35
2021/11/16 06:48:16;;;;;;;2.30;1.88;;;;;;;25.80;33.04;97008.78;5043764;28;20511;-35
2021/11/16 06:50:41;;;;;;;2.72;2.10;;;;;;;25.81;32.98;97004.38;5030104;28;20032;-36
2021/11/16 06:53:06;;;;;;;2.63;1.80;;;;;;;25.80;32.99;97008.78;5027037;28;20044;-31
2021/11/16 06:55:32;;;;;;;2.05;1.85;;;;;;;25.79;33.01;97006.22;5029804;28;20870;-36
2021/11/16 06:57:58;;;;;;;2.97;1.95;;;;;;;25.80;32.90;97013.19;5028956;28;20060;-37
2021/11/16 07:00:24;;;;;;;4.68;2.00;;;;;;;25.80;32.91;97003.53;5027457;28;20026;-33
2021/11/16 07:02:56;;;;;;;1.98;1.83;;;;;;;25.80;33.00;97008.78;5026452;28;20513;-35
2021/11/16 07:05:22;;;;;;;2.58;1.98;;;;;;;25.76;32.97;97004.63;5025591;28;20669;-33
2021/11/16 07:07:47;;;;;;;4.18;3.58;;;;;;;25.80;32.92;97019.28;5026444;28;20342;-34
2021/11/16 07:10:15;;;;;;;2.45;2.22;;;;;;;25.80;32.87;97019.28;5030635;28;20037;-35
2021/11/16 07:12:41;;;;;;;3.15;2.30;;;;;;;25.80;32.86;97029.78;5044368;28;20029;-32
2021/11/16 07:15:06;;;;;;;2.20;1.88;;;;;;;25.80;33.02;97024.53;5028807;28;20047;-34
2021/11/16 07:17:32;;;;;;;2.20;1.88;;;;;;;25.81;33.00;97031.47;5024296;28;20112;-35
2021/11/16 07:19:59;;;;;;;2.05;1.70;;;;;;;25.82;33.12;97021.84;5020407;28;20564;-31
2021/11/16 07:22:28;;;;;;;2.80;1.90;;;;;;;25.82;33.11;97021.84;5026079;28;20021;-33
2021/11/16 07:25:01;;;;;;;2.10;1.80;;;;;;;25.82;33.12;97017.41;5029524;28;20112;-36
2021/11/16 07:27:48;;;;;;;2.80;1.80;;;;;;;25.83;32.99;97021.75;5039841;28;20122;-35
2021/11/16 07:30:14;;;;;;;3.30;1.83;;;;;;;25.83;33.01;97021.75;5038390;28;20072;-34
2021/11/16 07:32:49;;;;;;;3.15;1.88;;;;;;;25.83;33.02;97024.38;5026868;28;20079;-32
2021/11/16 07:35:15;;;;;;;3.60;1.65;;;;;;;25.82;32.98;97035.78;5028173;28;20013;-32
2021/11/16 07:37:41;;;;;;;1.60;1.50;;;;;;;25.83;33.14;97031.41;5027571;28;20082;-34
2021/11/16 07:40:18;;;;;;;2.03;1.80;;;;;;;25.83;32.95;97031.41;5042143;28;20032;-35
2021/11/16 07:42:53;;;;;;;3.35;1.83;;;;;;;25.82;33.09;97033.16;5029616;28;20041;-37
2021/11/16 07:45:20;;;;;;;2.28;1.90;;;;;;;25.83;33.05;97039.28;5026741;28;20029;-34
2021/11/16 07:47:54;;;;;;;2.80;2.28;;;;;;;25.82;33.05;97037.59;5026200;28;20041;-31
2021/11/16 07:51:05;;;;;;;13.70;5.25;;;;;;;25.81;32.42;97036.72;5028632;28;20025;-38
2021/11/16 07:53:32;;;;;;;8.07;3.53;;;;;;;25.79;32.36;97043.84;5026409;28;20033;-34
2021/11/16 07:55:59;;;;;;;11.52;3.65;;;;;;;25.78;32.39;97042.13;5038997;28;20283;-33
2021/11/16 07:58:30;;;;;;;13.45;5.65;;;;;;;25.76;31.75;97043.97;5022742;28;20028;-32
2021/11/16 08:00:55;;;;;;;10.93;5.90;;;;;;;25.74;30.68;97039.75;5023691;28;20029;-33
2021/11/16 08:03:24;;;;;;;11.43;5.22;;;;;;;25.70;30.38;97039.03;5027303;28;20943;-34
2021/11/16 08:05:58;;;;;;;9.68;4.90;;;;;;;25.67;30.13;97040.03;5021130;28;21036;-39
2021/11/16 08:08:35;;;;;;;8.85;5.13;;;;;;;25.63;30.11;97040.25;5029922;28;20159;-36
2021/11/16 08:14:00;;;;;;;12.38;5.10;;;;;;;25.57;29.93;97049.28;5063410;28;20024;-35
2021/11/16 08:16:26;;;;;;;7.80;5.45;;;;;;;25.55;29.87;97045.84;5051481;28;20709;-35
2021/11/16 08:19:05;;;;;;;9.30;5.10;;;;;;;25.52;29.83;97049.44;5045977;28;20025;-39
2021/11/16 08:21:30;;;;;;;7.72;5.60;;;;;;;25.51;29.83;97045.13;5038307;28;20546;-38
2021/11/16 08:24:08;;;;;;;8.77;5.53;;;;;;;25.47;29.71;97043.56;5042668;28;20145;-35
2021/11/16 08:26:36;;;;;;;10.82;5.22;;;;;;;25.48;29.73;97055.78;5043165;28;20403;-33
2021/11/16 08:29:02;;;;;;;8.52;5.30;;;;;;;25.46;29.65;97062.88;5041383;28;20054;-36
2021/11/16 08:31:34;;;;;;;9.38;5.20;;;;;;;25.44;29.78;97055.06;5041555;28;22335;-34
2021/11/16 08:33:59;;;;;;;8.10;5.35;;;;;;;25.42;29.47;97056.06;5039400;28;20133;-37
2021/11/16 08:36:27;;;;;;;10.50;4.97;;;;;;;25.41;29.68;97049.13;5027209;28;21736;-36
2021/11/16 08:38:54;;;;;;;7.22;4.82;;;;;;;25.40;29.63;97060.56;5056559;28;20036;-36
2021/11/16 08:41:30;;;;;;;9.15;5.22;;;;;;;25.38;29.46;97059.75;5055267;28;20101;-34
2021/11/16 08:44:10;;;;;;;9.82;5.40;;;;;;;25.36;29.30;97057.19;5040241;28;20028;-33
2021/11/16 08:46:36;;;;;;;6.95;4.00;;;;;;;25.36;29.80;97051.13;5040677;28;20591;-38
2021/11/16 08:49:01;;;;;;;10.45;3.97;;;;;;;25.37;30.27;97055.44;5042327;28;20169;-36
2021/11/16 08:51:32;;;;;;;7.95;3.80;;;;;;;25.37;30.57;97061.56;5041059;28;20719;-34
2021/11/16 08:53:57;;;;;;;5.83;3.40;;;;;;;25.39;30.87;97051.81;5037849;28;20032;-35
2021/11/16 08:56:27;;;;;;;8.55;3.28;;;;;;;25.40;31.09;97052.69;5042700;28;20040;-33
2021/11/16 08:58:53;;;;;;;5.68;3.45;;;;;;;25.42;31.29;97049.06;5041520;28;20029;-36
2021/11/16 09:01:19;;;;;;;7.95;3.45;;;;;;;25.45;31.34;97050.69;5041033;28;20028;-34
2021/11/16 09:03:45;;;;;;;5.85;3.42;;;;;;;25.47;31.58;97042.75;5039329;28;20730;-34
2021/11/16 09:06:23;;;;;;;6.60;3.53;;;;;;;25.48;31.56;97045.31;5041241;28;20136;-37
2021/11/16 09:09:03;;;;;;;5.43;3.20;;;;;;;25.50;31.70;97046.06;5042229;28;21042;-37
2021/11/16 09:11:28;;;;;;;5.00;3.03;;;;;;;25.52;31.87;97048.63;5044197;28;20024;-35
2021/11/16 09:13:54;;;;;;;6.40;3.30;;;;;;;25.52;31.91;97046.81;5041024;28;20033;-35
2021/11/16 09:16:21;;;;;;;7.55;3.20;;;;;;;25.54;31.84;97045.00;5040761;28;20396;-39
2021/11/16 09:18:49;;;;;;;4.85;2.55;;;;;;;25.54;31.94;97042.38;5040432;28;20592;-35
2021/11/16 09:21:16;;;;;;;4.20;3.00;;;;;;;25.55;31.93;97041.44;5038940;28;20114;-32
2021/11/16 09:24:01;;;;;;;17.40;11.70;;;;;;;25.53;28.37;97052.94;5057712;28;20060;-33
2021/11/16 09:28:58;;;;;;;9.05;6.50;;;;;;;25.16;24.86;97039.78;5038361;28;20028;-35
2021/11/16 09:31:29;;;;;;;8.95;6.78;;;;;;;24.88;23.91;97035.81;5042326;28;20037;-35
2021/11/16 09:34:01;;;;;;;8.90;6.22;;;;;;;24.60;24.06;97040.47;5048001;28;20419;-36
2021/11/16 09:36:36;;;;;;;7.53;5.70;;;;;;;24.34;24.33;97033.78;5046129;28;20043;-34
2021/11/16 09:39:10;;;;;;;8.35;5.57;;;;;;;24.14;24.92;97041.56;5046842;28;20129;-32
2021/11/16 09:41:38;;;;;;;8.40;4.57;;;;;;;24.04;25.77;97039.38;5042275;28;20223;-36
2021/11/16 09:44:08;;;;;;;6.82;4.07;;;;;;;23.98;26.33;97041.34;5044791;28;21672;-35
2021/11/16 09:46:53;;;;;;;6.03;3.85;;;;;;;23.99;27.07;97043.03;5045910;28;20047;-34
2021/11/16 09:49:28;;;;;;;4.80;3.60;;;;;;;24.03;27.22;97043.78;5048879;28;20059;-35
2021/11/16 09:51:59;;;;;;;5.72;3.30;;;;;;;24.07;27.83;97040.13;5047808;28;20379;-36
2021/11/16 09:54:24;;;;;;;7.18;3.10;;;;;;;24.13;27.90;97042.50;5042788;28;22202;-38
2021/11/16 09:57:05;;;;;;;4.13;2.90;;;;;;;24.19;28.34;97033.53;5049256;28;20032;-34
2021/11/16 09:59:32;;;;;;;4.83;2.87;;;;;;;24.25;28.54;97038.50;5059433;28;20039;-38
2021/11/16 10:01:58;;;;;;;8.70;3.03;;;;;;;24.31;28.88;97036.53;5039250;28;20157;-39
2021/11/16 10:04:29;;;;;;;5.15;2.53;;;;;;;24.38;28.79;97041.44;5042213;28;20024;-34
2021/11/16 10:06:54;;;;;;;9.85;3.47;;;;;;;24.43;29.12;97036.00;5045412;28;20021;-34
2021/11/16 10:09:20;;;;;;;17.65;3.90;;;;;;;24.49;29.02;97033.09;5049241;28;20024;-36
2021/11/16 10:11:45;;;;;;;12.18;4.28;;;;;;;24.54;29.56;97030.28;5064488;28;20133;-37
2021/11/16 10:14:17;;;;;;;10.57;3.60;;;;;;;24.58;29.58;97026.63;5047233;28;20025;-31
2021/11/16 10:16:43;;;;;;;9.65;3.38;;;;;;;24.61;29.88;97028.25;5048654;28;20035;-33
2021/11/16 10:19:08;;;;;;;19.38;3.90;;;;;;;24.65;29.94;97032.44;5048768;28;20143;-30
2021/11/16 10:21:34;;;;;;;15.05;3.70;;;;;;;24.71;29.85;97029.53;5047246;28;20370;-37
2021/11/16 10:24:00;;;;;;;11.60;3.70;;;;;;;24.79;30.25;97016.94;5051223;28;20021;-35
2021/11/16 10:26:33;;;;;;;10.15;3.58;;;;;;;24.90;30.15;97013.03;5048743;28;20915;-29
2021/11/16 10:28:58;;;;;;;14.30;4.07;;;;;;;25.02;29.85;97017.66;5046101;28;20452;-36
2021/11/16 10:31:31;;;;;;;23.13;3.40;;;;;;;25.17;29.83;97012.66;5048033;28;20028;-29
2021/11/16 10:33:58;;;;;;;14.18;3.22;;;;;;;25.30;29.73;97011.16;5049314;28;20034;-31
2021/11/16 10:36:23;;;;;;;9.40;3.30;;;;;;;25.44;29.52;97013.09;5048468;28;20157;-31
2021/11/16 10:38:59;;;;;;;9.00;2.95;;;;;;;25.57;29.53;97008.16;5035729;28;20033;-32
2021/11/16 10:41:32;;;;;;;11.68;2.90;;;;;;;25.73;29.15;97007.38;5051247;28;20036;-31
2021/11/16 10:44:00;;;;;;;9.95;3.33;;;;;;;25.85;29.21;97007.72;5045379;28;20035;-30
2021/11/16 10:46:34;;;;;;;7.55;2.95;;;;;;;25.98;29.24;97008.78;5045860;28;20028;-33
2021/11/16 10:49:02;;;;;;;10.90;3.10;;;;;;;26.12;28.93;97013.31;5051133;28;20020;-30
2021/11/16 10:51:28;;;;;;;8.85;3.30;;;;;;;26.24;28.88;97001.38;5047107;28;20143;-32
2021/11/16 10:53:54;;;;;;;7.78;3.22;;;;;;;26.35;28.53;97003.44;5046900;28;20025;-28
2021/11/16 10:56:25;;;;;;;11.70;3.13;;;;;;;26.45;28.55;97004.66;5048292;28;20032;-35
2021/11/16 10:58:50;;;;;;;6.40;2.80;;;;;;;26.54;28.23;97005.13;5049458;28;20024;-31
2021/11/16 11:01:17;;;;;;;7.28;2.83;;;;;;;26.61;28.31;96999.44;5060027;28;20028;-30
2021/11/16 11:03:51;;;;;;;13.05;2.78;;;;;;;26.67;28.30;96997.41;5043847;28;20389;-31
2021/11/16 11:06:31;;;;;;;6.93;2.90;;;;;;;26.74;28.24;96989.09;5046345;28;20280;-32
2021/11/16 11:09:01;;;;;;;8.52;2.88;;;;;;;26.80;28.23;96998.47;5049220;28;20064;-30
2021/11/16 11:11:35;;;;;;;7.30;2.70;;;;;;;26.84;28.36;96989.47;5041573;28;20028;-32
2021/11/16 11:14:13;;;;;;;7.80;2.40;;;;;;;26.90;28.25;96992.69;5042612;28;20025;-33
2021/11/16 11:16:44;;;;;;;8.07;2.53;;;;;;;26.94;28.31;96994.22;5049851;28;20053;-34
2021/11/16 11:19:11;;;;;;;7.10;2.63;;;;;;;26.99;28.29;96992.22;5045771;28;21166;-40
2021/11/16 11:21:47;;;;;;;8.07;2.92;;;;;;;27.05;28.26;96994.53;5046575;28;20045;-34
2021/11/16 11:24:13;;;;;;;6.97;2.88;;;;;;;27.11;28.27;96990.69;5063155;28;20747;-38
2021/11/16 11:26:47;;;;;;;8.07;3.05;;;;;;;27.14;28.30;96993.16;5047938;28;20040;-34
2021/11/16 11:29:29;;;;;;;7.57;3.15;;;;;;;27.18;28.30;96991.19;5045897;28;20032;-33
2021/11/16 11:32:02;;;;;;;6.55;2.50;;;;;;;27.21;28.26;96985.78;5042206;28;20017;-38
2021/11/16 11:34:39;;;;;;;5.90;2.67;;;;;;;27.21;28.27;96977.88;5043266;28;20111;-37
2021/11/16 11:37:25;;;;;;;7.63;3.33;;;;;;;27.22;28.20;96990.09;5043349;28;20028;-33
2021/11/16 11:40:21;;;;;;;9.82;2.72;;;;;;;27.21;28.08;96980.50;5042836;28;20594;-34
2021/11/16 11:42:51;;;;;;;6.35;2.80;;;;;;;27.18;28.09;96978.91;5048985;28;20064;-35
2021/11/16 11:45:28;;;;;;;4.50;2.40;;;;;;;27.16;28.16;96982.56;5048314;28;20498;-32
2021/11/16 11:48:05;;;;;;;8.20;2.80;;;;;;;27.13;28.29;96989.69;5049611;28;20034;-34
2021/11/16 11:50:39;;;;;;;5.13;2.58;;;;;;;27.10;28.12;96989.00;5050667;28;20056;-31